Time;durP1;ratioP1;P1;durP2;ratioP2;P2;SDS_P1;SDS_P2;PMS_P1;PMS_P2;Temp;Humidity;BMP_temperature;BMP_pressure;BME280_temperature;BME280_humidity;BME280_pressure;Samples;Min_cycle;Max_cycle;Signal;HPM_P1;HPM_P2
2021/03/31 00:00:51;;;;;;;6.10;5.27;;;11.70;56.30;;;;;;4807239;29;20460;-78
2021/03/31 00:03:20;;;;;;;6.07;5.60;;;11.70;56.40;;;;;;4806773;29;20463;-78
2021/03/31 00:05:46;;;;;;;6.80;6.20;;;11.70;56.60;;;;;;4807175;29;20456;-78
2021/03/31 00:08:14;;;;;;;5.20;4.77;;;11.60;56.60;;;;;;4806827;29;20505;-78
2021/03/31 00:10:45;;;;;;;9.03;6.97;;;11.60;56.80;;;;;;4806924;29;20521;-78
2021/03/31 00:13:12;;;;;;;7.57;5.80;;;11.50;56.70;;;;;;4806618;29;20463;-77
2021/03/31 00:15:38;;;;;;;7.73;5.63;;;11.50;57.00;;;;;;4806826;29;20496;-78
2021/03/31 00:18:06;;;;;;;5.93;5.13;;;11.50;57.10;;;;;;4806442;29;20520;-78
2021/03/31 00:20:33;;;;;;;5.73;5.03;;;11.50;57.00;;;;;;4806743;29;20467;-78
2021/03/31 00:23:00;;;;;;;7.90;7.20;;;11.40;57.10;;;;;;4806491;29;20471;-77
2021/03/31 00:25:27;;;;;;;6.43;5.50;;;11.40;57.40;;;;;;4806673;29;20456;-78
2021/03/31 00:27:54;;;;;;;6.30;5.70;;;11.30;57.40;;;;;;4806624;29;20483;-77
2021/03/31 00:30:21;;;;;;;6.83;5.30;;;11.40;57.30;;;;;;4806343;29;20462;-78
2021/03/31 00:32:47;;;;;;;7.40;6.70;;;11.30;57.50;;;;;;4805800;29;20965;-76
2021/03/31 00:35:14;;;;;;;7.67;6.97;;;11.30;57.60;;;;;;4806627;29;20505;-78
2021/03/31 00:37:40;;;;;;;7.07;6.37;;;11.30;57.50;;;;;;4806585;29;21001;-78
2021/03/31 00:40:09;;;;;;;7.73;5.57;;;11.20;57.30;;;;;;4806432;29;20484;-78
2021/03/31 00:42:36;;;;;;;9.37;7.07;;;11.20;57.40;;;;;;4806140;29;20467;-78
2021/03/31 00:45:03;;;;;;;7.53;6.77;;;11.30;57.90;;;;;;4806245;29;20456;-78
2021/03/31 00:47:30;;;;;;;10.43;5.80;;;11.20;58.20;;;;;;4806375;29;20480;-78
2021/03/31 00:49:56;;;;;;;7.87;7.07;;;11.20;58.40;;;;;;4806481;29;20496;-78
2021/03/31 00:52:22;;;;;;;19.03;8.20;;;11.20;58.60;;;;;;4806004;29;20464;-78
2021/03/31 00:54:48;;;;;;;10.70;6.87;;;11.10;58.70;;;;;;4806344;29;20487;-78
2021/03/31 00:57:16;;;;;;;8.13;6.40;;;11.10;58.60;;;;;;4806144;29;20487;-78
2021/03/31 00:59:43;;;;;;;8.60;7.70;;;11.10;58.60;;;;;;4806072;29;20472;-78
2021/03/31 01:02:09;;;;;;;8.13;6.30;;;11.00;58.50;;;;;;4806355;29;20462;-78
2021/03/31 01:04:35;;;;;;;8.10;6.47;;;11.00;58.50;;;;;;4805999;29;20467;-78
2021/03/31 01:07:01;;;;;;;9.00;7.13;;;11.00;58.50;;;;;;4806034;29;20472;-78
2021/03/31 01:09:28;;;;;;;6.47;5.83;;;11.00;58.50;;;;;;4806399;29;20471;-78
2021/03/31 01:12:03;;;;;;;7.53;6.23;;;10.90;58.70;;;;;;4809742;29;20521;-78
2021/03/31 01:14:41;;;;;;;6.47;5.87;;;10.90;59.30;;;;;;4809798;29;20494;-78
2021/03/31 01:17:15;;;;;;;6.90;6.20;;;10.90;59.20;;;;;;4809913;29;20485;-78
2021/03/31 01:20:20;;;;;;;9.00;6.10;;;10.90;59.10;;;;;;4809662;29;20458;-77
2021/03/31 01:23:35;;;;;;;6.90;6.13;;;10.90;59.10;;;;;;4794698;29;20461;-78
2021/03/31 01:26:07;;;;;;;10.30;6.70;;;10.90;59.20;;;;;;4810499;29;20459;-78
2021/03/31 01:28:55;;;;;;;8.53;6.70;;;10.80;59.70;;;;;;4810136;29;20459;-78
2021/03/31 01:31:44;;;;;;;7.77;6.33;;;10.80;60.30;;;;;;4810164;29;20708;-78
2021/03/31 01:34:35;;;;;;;8.90;6.87;;;10.80;60.60;;;;;;4809553;29;20463;-78
2021/03/31 01:37:07;;;;;;;7.23;6.53;;;10.70;60.80;;;;;;4809215;29;20487;-77
2021/03/31 01:39:36;;;;;;;7.70;6.73;;;10.70;61.00;;;;;;4809523;29;20477;-78
2021/03/31 01:42:05;;;;;;;8.10;7.30;;;10.70;61.30;;;;;;4809000;29;20993;-77
2021/03/31 01:44:31;;;;;;;9.03;7.63;;;10.60;61.80;;;;;;4812377;29;20451;-78
2021/03/31 01:47:00;;;;;;;8.60;6.80;;;10.60;62.10;;;;;;4818979;29;20490;-76
2021/03/31 01:49:27;;;;;;;7.00;6.30;;;10.50;62.30;;;;;;4818543;29;20458;-78
2021/03/31 01:51:58;;;;;;;9.23;8.33;;;10.50;62.90;;;;;;4818509;29;20455;-77
2021/03/31 01:54:25;;;;;;;9.93;8.47;;;10.50;63.10;;;;;;4808998;29;20462;-78
2021/03/31 01:56:53;;;;;;;8.97;7.17;;;10.50;63.60;;;;;;4808998;29;20482;-77
2021/03/31 01:59:22;;;;;;;7.50;6.90;;;10.40;63.70;;;;;;4809121;29;20548;-78
2021/03/31 02:01:51;;;;;;;7.77;7.07;;;10.40;64.00;;;;;;4808506;29;20477;-78
2021/03/31 02:04:18;;;;;;;7.67;6.90;;;10.30;64.10;;;;;;4807446;29;20459;-78
2021/03/31 02:06:46;;;;;;;11.20;7.83;;;10.30;64.40;;;;;;4808586;29;20550;-78
2021/03/31 02:09:14;;;;;;;7.47;6.20;;;10.30;65.20;;;;;;4808926;29;20503;-78
2021/03/31 02:11:44;;;;;;;6.20;5.60;;;10.20;65.90;;;;;;4808309;29;20466;-78
2021/03/31 02:14:14;;;;;;;9.10;8.00;;;10.20;66.40;;;;;;4808487;29;20466;-78
2021/03/31 02:16:43;;;;;;;7.70;6.30;;;10.20;66.60;;;;;;4808428;29;20483;-78
2021/03/31 02:19:13;;;;;;;7.93;6.57;;;10.10;66.60;;;;;;4808601;29;20845;-78
2021/03/31 02:21:41;;;;;;;6.30;5.70;;;10.00;66.70;;;;;;4807016;29;20469;-78
2021/03/31 02:24:08;;;;;;;7.53;5.93;;;10.00;67.00;;;;;;4808385;29;20465;-78
2021/03/31 02:26:35;;;;;;;13.77;6.67;;;10.00;67.10;;;;;;4808254;29;20894;-78
2021/03/31 02:29:02;;;;;;;7.27;6.67;;;10.00;67.00;;;;;;4808278;29;20531;-78
2021/03/31 02:31:28;;;;;;;6.83;6.13;;;9.90;68.10;;;;;;4808380;29;20474;-77
2021/03/31 02:33:56;;;;;;;7.37;6.30;;;9.90;68.50;;;;;;4808335;29;20463;-78
2021/03/31 02:36:23;;;;;;;9.17;6.90;;;9.90;68.40;;;;;;4808036;29;20494;-78
2021/03/31 02:38:50;;;;;;;10.13;7.83;;;9.90;67.90;;;;;;4808503;29;20470;-78
2021/03/31 02:41:18;;;;;;;13.80;6.77;;;9.90;67.40;;;;;;4807926;29;20466;-77
2021/03/31 02:43:49;;;;;;;12.30;7.23;;;10.00;66.40;;;;;;4807856;29;20609;-77
2021/03/31 02:46:19;;;;;;;6.77;6.03;;;10.00;66.40;;;;;;4808263;29;20465;-78
2021/03/31 02:48:48;;;;;;;8.23;6.93;;;10.00;66.50;;;;;;4808178;29;20474;-78
2021/03/31 02:51:16;;;;;;;9.83;7.47;;;9.90;67.60;;;;;;4808111;29;20466;-78
2021/03/31 02:53:43;;;;;;;7.43;6.60;;;10.00;66.40;;;;;;4807523;29;20991;-78
2021/03/31 02:56:11;;;;;;;8.30;6.77;;;9.90;67.60;;;;;;4807759;29;20498;-77
2021/03/31 02:58:39;;;;;;;7.80;6.17;;;9.90;67.70;;;;;;4807614;29;20464;-77
2021/03/31 03:01:07;;;;;;;9.90;6.43;;;9.90;68.00;;;;;;4807600;29;20954;-78
2021/03/31 03:03:34;;;;;;;7.47;6.70;;;9.80;68.40;;;;;;4807724;29;20466;-78
2021/03/31 03:06:01;;;;;;;7.40;6.27;;;9.80;68.80;;;;;;4807707;29;20461;-77
2021/03/31 03:08:28;;;;;;;7.60;6.80;;;9.80;69.00;;;;;;4808015;29;20485;-76
2021/03/31 03:10:57;;;;;;;7.67;6.67;;;9.80;69.20;;;;;;4807549;29;20472;-78
2021/03/31 03:13:24;;;;;;;9.17;7.10;;;9.70;69.20;;;;;;4807540;29;20465;-78
2021/03/31 03:15:51;;;;;;;8.43;6.80;;;9.70;69.70;;;;;;4807895;29;20498;-77
2021/03/31 03:18:18;;;;;;;11.27;6.72;;;9.60;70.10;;;;;;4807932;29;20486;-78
2021/03/31 03:20:44;;;;;;;8.70;7.10;;;9.60;70.50;;;;;;4808252;29;20223;-78
2021/03/31 03:23:11;;;;;;;7.25;5.90;;;9.60;70.80;;;;;;4807593;29;20465;-78
2021/03/31 03:25:37;;;;;;;8.07;6.00;;;9.50;71.20;;;;;;4807330;29;20279;-78
2021/03/31 03:28:05;;;;;;;10.43;8.00;;;9.50;71.80;;;;;;4807340;29;20553;-78
2021/03/31 03:30:33;;;;;;;9.13;6.90;;;9.50;72.40;;;;;;4807260;29;20979;-78
2021/03/31 03:32:59;;;;;;;7.77;6.97;;;9.40;72.50;;;;;;4806501;29;20493;-77
2021/03/31 03:35:28;;;;;;;8.47;7.10;;;9.40;72.80;;;;;;4806730;29;20500;-78
2021/03/31 03:37:56;;;;;;;10.40;9.40;;;9.30;73.30;;;;;;4806876;29;20543;-78
2021/03/31 03:40:24;;;;;;;6.90;6.13;;;9.30;73.60;;;;;;4807099;29;20470;-77
2021/03/31 03:42:50;;;;;;;7.93;6.73;;;9.30;73.90;;;;;;4806838;29;20458;-77
2021/03/31 03:45:18;;;;;;;10.27;7.90;;;9.20;74.20;;;;;;4807192;29;20458;-77
2021/03/31 03:47:44;;;;;;;8.97;7.50;;;9.20;74.60;;;;;;4806749;29;21020;-78
2021/03/31 03:50:13;;;;;;;6.67;5.60;;;9.20;75.30;;;;;;4807197;29;20462;-77
2021/03/31 03:52:43;;;;;;;7.27;6.57;;;9.20;76.10;;;;;;4806502;29;20847;-77
2021/03/31 03:55:10;;;;;;;6.93;6.30;;;9.10;76.70;;;;;;4806672;29;20585;-77
2021/03/31 03:57:37;;;;;;;9.80;8.35;;;9.10;77.10;;;;;;4806922;29;20802;-77
2021/03/31 04:00:12;;;;;;;6.70;5.97;;;9.10;77.10;;;;;;4806752;29;20246;-78
2021/03/31 04:02:38;;;;;;;8.17;6.93;;;9.10;77.50;;;;;;4806510;29;20828;-78
2021/03/31 04:05:05;;;;;;;10.90;7.33;;;9.10;77.90;;;;;;4806584;29;20970;-77
2021/03/31 04:07:32;;;;;;;11.93;8.90;;;9.00;78.40;;;;;;4806777;29;20478;-78
2021/03/31 04:10:00;;;;;;;8.15;7.35;;;9.00;78.50;;;;;;4806601;29;20472;-77
2021/03/31 04:12:27;;;;;;;7.72;6.60;;;9.00;78.50;;;;;;4806346;29;20297;-78
2021/03/31 04:14:54;;;;;;;7.88;7.10;;;9.00;78.90;;;;;;4806746;29;20239;-77
2021/03/31 04:17:20;;;;;;;7.95;6.38;;;9.00;78.90;;;;;;4806576;29;20236;-78
2021/03/31 04:19:49;;;;;;;7.72;5.97;;;9.00;78.70;;;;;;4806551;29;20226;-78
2021/03/31 04:22:15;;;;;;;9.37;8.10;;;8.90;78.50;;;;;;4806267;29;20220;-78
2021/03/31 04:24:42;;;;;;;10.10;8.30;;;8.90;78.90;;;;;;4806128;29;20836;-77
2021/03/31 04:27:11;;;;;;;12.77;7.75;;;8.90;79.30;;;;;;4806095;29;20515;-78
2021/03/31 04:29:39;;;;;;;8.52;7.72;;;8.90;79.80;;;;;;4806146;29;20220;-77
2021/03/31 04:32:08;;;;;;;10.48;7.07;;;8.90;80.30;;;;;;4805937;29;20222;-77
2021/03/31 04:34:34;;;;;;;9.85;7.10;;;8.80;80.50;;;;;;4805984;29;20680;-77
2021/03/31 04:37:00;;;;;;;9.55;7.75;;;8.80;80.70;;;;;;4806159;29;20607;-77
2021/03/31 04:39:27;;;;;;;7.50;6.80;;;8.80;81.00;;;;;;4805949;29;20221;-77
2021/03/31 04:41:53;;;;;;;7.88;6.70;;;8.80;81.20;;;;;;4805926;29;20469;-78
2021/03/31 04:44:20;;;;;;;10.60;9.60;;;8.80;81.30;;;;;;4805156;29;20220;-77
2021/03/31 04:46:46;;;;;;;9.10;7.70;;;8.80;81.70;;;;;;4806111;29;20238;-78
2021/03/31 04:49:12;;;;;;;9.57;6.78;;;8.80;81.80;;;;;;4805890;29;20215;-77
2021/03/31 04:51:39;;;;;;;13.93;9.52;;;8.80;82.10;;;;;;4805828;29;20227;-77
2021/03/31 04:54:05;;;;;;;9.87;8.00;;;8.80;82.30;;;;;;4805736;29;20220;-77
2021/03/31 04:56:32;;;;;;;8.90;7.90;;;8.80;82.60;;;;;;4805582;29;20857;-77
2021/03/31 04:58:58;;;;;;;7.90;7.07;;;8.80;82.70;;;;;;4805607;29;20217;-77
2021/03/31 05:01:25;;;;;;;10.30;7.88;;;8.80;82.90;;;;;;4805234;29;20215;-77
2021/03/31 05:03:51;;;;;;;12.37;8.40;;;8.70;83.00;;;;;;4805502;29;20740;-77
2021/03/31 05:06:17;;;;;;;11.15;8.85;;;8.80;83.20;;;;;;4805704;29;20462;-78
2021/03/31 05:08:43;;;;;;;9.82;8.45;;;8.80;83.10;;;;;;4805544;29;20590;-77
2021/03/31 05:11:09;;;;;;;9.52;7.00;;;8.70;83.00;;;;;;4805534;29;20215;-77
2021/03/31 05:13:36;;;;;;;8.77;7.70;;;8.80;83.20;;;;;;4805301;29;20219;-77
2021/03/31 05:16:02;;;;;;;13.18;7.78;;;8.70;83.10;;;;;;4805682;29;20231;-78
2021/03/31 05:18:29;;;;;;;13.02;9.55;;;8.70;83.30;;;;;;4805550;29;20251;-77
2021/03/31 05:20:55;;;;;;;12.30;10.18;;;8.80;83.60;;;;;;4805536;29;20213;-77
2021/03/31 05:23:21;;;;;;;16.98;8.10;;;8.80;83.90;;;;;;4805254;29;20219;-77
2021/03/31 05:25:48;;;;;;;12.52;9.20;;;8.80;84.00;;;;;;4805727;29;20258;-77
2021/03/31 05:28:14;;;;;;;12.52;9.68;;;8.80;84.10;;;;;;4805307;29;20239;-77
2021/03/31 05:30:40;;;;;;;9.37;8.40;;;8.90;84.10;;;;;;4805158;29;20226;-78
2021/03/31 05:33:06;;;;;;;15.17;8.80;;;8.90;83.90;;;;;;4805225;29;20521;-77
2021/03/31 05:35:34;;;;;;;14.50;8.90;;;8.90;83.70;;;;;;4805406;29;20504;-78
2021/03/31 05:38:00;;;;;;;18.37;10.80;;;9.00;83.70;;;;;;4805551;29;20482;-78
2021/03/31 05:40:27;;;;;;;9.40;7.60;;;9.00;83.50;;;;;;4805505;29;20468;-78
2021/03/31 05:42:57;;;;;;;12.47;8.23;;;9.00;83.60;;;;;;4805548;29;20579;-78
2021/03/31 05:45:23;;;;;;;12.10;8.47;;;9.10;83.50;;;;;;4805580;29;20468;-77
2021/03/31 05:47:50;;;;;;;15.10;9.60;;;9.10;83.40;;;;;;4805763;29;20493;-78
2021/03/31 05:50:17;;;;;;;13.67;9.93;;;9.10;83.50;;;;;;4805405;29;20523;-78
2021/03/31 05:52:45;;;;;;;8.27;7.50;;;9.20;83.90;;;;;;4805219;29;20474;-78
2021/03/31 05:55:13;;;;;;;12.97;8.17;;;9.20;83.70;;;;;;4805178;29;20499;-77
2021/03/31 05:57:41;;;;;;;11.07;8.83;;;9.30;83.80;;;;;;4808589;29;20493;-78
2021/03/31 06:00:11;;;;;;;11.13;7.80;;;9.30;83.80;;;;;;4808887;29;20474;-77
2021/03/31 06:02:38;;;;;;;12.77;8.60;;;9.30;83.80;;;;;;4808459;29;20468;-77
2021/03/31 06:05:05;;;;;;;12.50;8.43;;;9.40;83.70;;;;;;4808529;29;20466;-77
2021/03/31 06:07:31;;;;;;;9.27;8.47;;;9.40;83.50;;;;;;4808231;29;20246;-78
2021/03/31 06:10:23;;;;;;;10.67;7.87;;;9.50;83.30;;;;;;4808386;29;20478;-77
2021/03/31 06:12:56;;;;;;;9.80;8.90;;;9.50;83.30;;;;;;4803226;29;20470;-78
2021/03/31 06:15:29;;;;;;;12.80;9.10;;;9.60;83.30;;;;;;4809418;29;20503;-78
2021/03/31 06:17:57;;;;;;;12.17;8.93;;;9.60;83.30;;;;;;4816784;29;20487;-78
2021/03/31 06:20:53;;;;;;;13.33;10.83;;;9.70;83.50;;;;;;4817166;29;20457;-77
2021/03/31 06:23:52;;;;;;;13.67;9.87;;;9.70;83.50;;;;;;4814816;29;20473;-78
2021/03/31 06:26:21;;;;;;;16.67;9.90;;;9.70;83.50;;;;;;4820279;29;20975;-78
2021/03/31 06:29:02;;;;;;;15.97;12.53;;;9.70;83.70;;;;;;4818814;29;20883;-79
2021/03/31 06:31:32;;;;;;;19.07;13.27;;;9.80;83.90;;;;;;4819467;29;20453;-77
2021/03/31 06:34:03;;;;;;;11.30;9.70;;;9.90;84.00;;;;;;4817326;29;20489;-79
2021/03/31 06:36:34;;;;;;;15.90;9.50;;;10.00;82.80;;;;;;4819645;29;20554;-79
2021/03/31 06:39:01;;;;;;;20.27;9.97;;;10.10;82.70;;;;;;4816479;29;20462;-79
2021/03/31 06:41:30;;;;;;;25.67;11.73;;;10.10;82.50;;;;;;4826000;29;20462;-80
2021/03/31 06:44:09;;;;;;;15.40;9.40;;;10.20;82.40;;;;;;4829838;29;20495;-79
2021/03/31 06:46:44;;;;;;;15.87;9.20;;;10.30;82.30;;;;;;4829932;29;20856;-80
2021/03/31 06:49:10;;;;;;;14.20;10.47;;;10.40;82.10;;;;;;4829997;29;20464;-80
2021/03/31 06:51:37;;;;;;;20.63;10.83;;;10.50;81.90;;;;;;4829475;29;20458;-81
2021/03/31 06:54:14;;;;;;;10.93;8.97;;;10.50;81.70;;;;;;4829193;29;20472;-80
2021/03/31 06:56:43;;;;;;;18.43;9.67;;;10.60;81.40;;;;;;4824950;29;20510;-78
2021/03/31 06:59:10;;;;;;;13.63;9.17;;;10.70;81.30;;;;;;4819833;29;20465;-78
2021/03/31 07:01:37;;;;;;;15.13;9.17;;;10.80;81.20;;;;;;4826268;29;20460;-77
2021/03/31 07:04:05;;;;;;;13.30;8.80;;;10.90;81.00;;;;;;4832954;29;20970;-78
2021/03/31 07:06:32;;;;;;;14.83;9.10;;;11.00;80.60;;;;;;4830946;29;20510;-78
2021/03/31 07:08:58;;;;;;;19.20;10.43;;;11.10;80.10;;;;;;4831052;29;20466;-79
2021/03/31 07:11:36;;;;;;;13.23;9.50;;;11.20;79.90;;;;;;4832043;29;20455;-78
2021/03/31 07:14:05;;;;;;;11.17;9.50;;;11.30;79.80;;;;;;4832169;29;20466;-78
2021/03/31 07:16:32;;;;;;;22.23;9.20;;;11.40;79.60;;;;;;4832726;29;20506;-78
2021/03/31 07:19:00;;;;;;;16.20;9.10;;;11.50;79.30;;;;;;4831642;29;20454;-78
2021/03/31 07:21:26;;;;;;;13.17;8.70;;;11.60;79.00;;;;;;4829429;29;20977;-78
2021/03/31 07:23:53;;;;;;;12.33;8.90;;;11.70;78.90;;;;;;4826769;29;20514;-78
2021/03/31 07:26:20;;;;;;;15.70;9.93;;;11.90;79.40;;;;;;4826811;29;20451;-78
2021/03/31 07:28:48;;;;;;;12.90;9.90;;;12.00;79.50;;;;;;4827041;29;20834;-78
2021/03/31 07:31:21;;;;;;;17.23;9.97;;;12.10;79.10;;;;;;4827853;29;20471;-77
2021/03/31 07:34:00;;;;;;;15.07;9.33;;;12.30;78.90;;;;;;4826984;29;20553;-78
2021/03/31 07:36:27;;;;;;;14.90;8.70;;;12.40;78.40;;;;;;4826585;29;20502;-78
2021/03/31 07:38:54;;;;;;;11.73;8.70;;;12.60;77.80;;;;;;4827209;29;20466;-78
2021/03/31 07:41:22;;;;;;;14.67;8.97;;;12.70;77.50;;;;;;4827423;29;20486;-77
2021/03/31 07:43:49;;;;;;;13.73;8.83;;;12.80;76.90;;;;;;4826624;29;20463;-78
2021/03/31 07:46:19;;;;;;;11.20;8.70;;;12.90;76.30;;;;;;4827240;29;20464;-78
2021/03/31 07:48:46;;;;;;;12.70;7.70;;;13.00;76.20;;;;;;4828201;29;20464;-78
2021/03/31 07:51:17;;;;;;;13.50;8.67;;;13.10;74.40;;;;;;4827908;29;20474;-78
2021/03/31 07:53:44;;;;;;;9.83;8.83;;;13.20;73.60;;;;;;4827736;29;20459;-78
2021/03/31 07:56:15;;;;;;;8.63;7.83;;;13.30;72.80;;;;;;4827832;29;20503;-78
2021/03/31 07:58:41;;;;;;;10.47;9.37;;;13.40;71.90;;;;;;4828627;29;20976;-78
2021/03/31 08:01:10;;;;;;;7.77;7.00;;;13.50;71.40;;;;;;4828464;29;20426;-78
2021/03/31 08:03:39;;;;;;;11.60;8.10;;;13.60;70.10;;;;;;4828534;29;20496;-78
2021/03/31 08:06:14;;;;;;;10.10;8.60;;;13.80;70.10;;;;;;4828908;29;20464;-78
2021/03/31 08:09:02;;;;;;;9.17;8.27;;;14.00;69.50;;;;;;4827548;29;20458;-78
2021/03/31 08:11:58;;;;;;;9.17;7.60;;;14.20;68.20;;;;;;4828162;29;20463;-78
2021/03/31 08:14:45;;;;;;;7.97;6.43;;;14.40;68.80;;;;;;4828164;29;20558;-78
2021/03/31 08:17:14;;;;;;;8.47;7.53;;;14.60;67.80;;;;;;4827941;29;20479;-78
2021/03/31 08:19:43;;;;;;;8.53;7.67;;;14.70;67.80;;;;;;4827987;29;20463;-78
2021/03/31 08:22:30;;;;;;;10.00;7.77;;;14.90;67.60;;;;;;4829766;29;20460;-77
2021/03/31 08:24:58;;;;;;;10.80;6.80;;;15.10;67.40;;;;;;4828293;29;20498;-77
2021/03/31 08:27:26;;;;;;;12.20;9.30;;;15.30;67.40;;;;;;4828391;29;20481;-78
2021/03/31 08:29:55;;;;;;;9.77;7.97;;;15.50;66.80;;;;;;4827801;29;20460;-78
2021/03/31 08:32:24;;;;;;;11.10;7.87;;;15.60;65.90;;;;;;4828564;29;20526;-78
2021/03/31 08:34:52;;;;;;;16.80;7.70;;;15.80;64.40;;;;;;4828813;29;20456;-78
2021/03/31 08:37:24;;;;;;;8.90;6.90;;;15.80;63.10;;;;;;4828720;29;20488;-78
2021/03/31 08:39:51;;;;;;;8.40;7.50;;;16.00;63.20;;;;;;4828972;29;20799;-78
2021/03/31 08:42:17;;;;;;;7.33;6.33;;;16.20;62.80;;;;;;4828542;29;20471;-78
2021/03/31 08:44:48;;;;;;;9.40;6.80;;;16.40;61.10;;;;;;4829260;29;20469;-78
2021/03/31 08:47:16;;;;;;;12.43;7.20;;;16.60;61.70;;;;;;4828643;29;20489;-78
2021/03/31 08:49:43;;;;;;;8.50;7.53;;;16.70;62.00;;;;;;4828941;29;20466;-78
2021/03/31 08:52:12;;;;;;;13.40;8.80;;;16.90;60.90;;;;;;4828799;29;20461;-78
2021/03/31 08:54:41;;;;;;;16.90;9.60;;;17.10;62.10;;;;;;4828821;29;20470;-77
2021/03/31 08:57:09;;;;;;;13.93;8.73;;;17.20;62.10;;;;;;4829495;29;20505;-77
2021/03/31 08:59:37;;;;;;;14.20;7.83;;;17.30;62.10;;;;;;4829149;29;20473;-78
2021/03/31 09:02:05;;;;;;;14.90;9.47;;;17.50;61.90;;;;;;4828403;29;20469;-78
2021/03/31 09:04:31;;;;;;;11.37;7.97;;;17.60;61.60;;;;;;4828490;29;20465;-78
2021/03/31 09:06:59;;;;;;;11.30;8.47;;;17.70;60.70;;;;;;4828952;29;20482;-78
2021/03/31 09:09:32;;;;;;;13.67;9.00;;;17.80;60.40;;;;;;4829377;29;20499;-78
2021/03/31 09:11:59;;;;;;;11.90;9.20;;;17.90;60.70;;;;;;4828234;29;20462;-77
2021/03/31 09:14:29;;;;;;;10.60;8.60;;;18.00;61.20;;;;;;4828385;29;20468;-78
2021/03/31 09:16:57;;;;;;;16.30;8.90;;;18.20;59.90;;;;;;4828444;29;20517;-78
2021/03/31 09:19:26;;;;;;;13.33;9.43;;;18.30;61.10;;;;;;4828842;29;20463;-78
2021/03/31 09:21:53;;;;;;;11.53;7.60;;;18.40;61.30;;;;;;4828815;29;20463;-78
2021/03/31 09:24:23;;;;;;;11.13;9.67;;;18.60;60.90;;;;;;4828637;29;20973;-78
2021/03/31 09:26:58;;;;;;;12.87;8.00;;;18.70;60.40;;;;;;4829448;29;20569;-78
2021/03/31 09:29:25;;;;;;;10.63;8.23;;;18.80;59.90;;;;;;4829408;29;20476;-78
2021/03/31 09:31:52;;;;;;;10.07;8.10;;;18.90;59.20;;;;;;4831711;29;20472;-80
2021/03/31 09:34:19;;;;;;;13.43;8.27;;;19.00;59.50;;;;;;4833370;29;20551;-80
2021/03/31 09:37:01;;;;;;;8.60;7.80;;;19.10;60.70;;;;;;4832460;29;20910;-79
2021/03/31 09:39:44;;;;;;;10.60;7.77;;;19.20;61.40;;;;;;4833039;29;20473;-80
2021/03/31 09:42:17;;;;;;;9.60;7.80;;;19.30;60.50;;;;;;4833115;29;20534;-80
2021/03/31 09:44:43;;;;;;;12.27;8.13;;;19.40;60.50;;;;;;4832674;29;20455;-80
2021/03/31 09:47:12;;;;;;;8.67;7.70;;;19.50;60.40;;;;;;4832685;29;20995;-80
2021/03/31 09:49:42;;;;;;;9.70;7.70;;;19.60;60.80;;;;;;4832376;29;20515;-80
2021/03/31 09:52:08;;;;;;;13.50;8.40;;;19.70;59.80;;;;;;4831911;29;20470;-78
2021/03/31 09:54:35;;;;;;;8.63;7.47;;;19.80;59.70;;;;;;4832323;29;20541;-78
2021/03/31 09:57:01;;;;;;;8.47;7.63;;;20.00;59.40;;;;;;4832405;29;20502;-78
2021/03/31 09:59:30;;;;;;;9.80;8.90;;;20.10;58.50;;;;;;4832635;29;20466;-78
2021/03/31 10:01:56;;;;;;;12.60;6.90;;;20.20;59.00;;;;;;4832519;29;20463;-81
2021/03/31 10:04:24;;;;;;;9.40;8.07;;;20.30;59.30;;;;;;4832264;29;20472;-78
2021/03/31 10:07:06;;;;;;;11.10;7.37;;;20.40;58.40;;;;;;4832025;29;20496;-79
2021/03/31 10:09:38;;;;;;;8.47;6.40;;;20.60;58.30;;;;;;4832214;29;20466;-81
2021/03/31 10:12:05;;;;;;;10.90;7.57;;;20.70;58.40;;;;;;4831925;29;20959;-80
2021/03/31 10:14:32;;;;;;;9.03;7.70;;;20.80;58.00;;;;;;4829818;29;20463;-79
2021/03/31 10:16:59;;;;;;;8.73;7.97;;;21.00;56.40;;;;;;4826978;29;20510;-77
2021/03/31 10:19:25;;;;;;;8.20;6.90;;;21.10;56.30;;;;;;4826675;29;20459;-77
2021/03/31 10:22:05;;;;;;;10.27;7.90;;;21.20;55.20;;;;;;4827096;29;20472;-79
2021/03/31 10:24:36;;;;;;;11.37;7.10;;;21.40;55.30;;;;;;4828191;29;20489;-79
2021/03/31 10:27:03;;;;;;;8.87;6.33;;;21.50;56.30;;;;;;4828069;29;20473;-79
2021/03/31 10:29:29;;;;;;;8.07;7.10;;;21.70;55.50;;;;;;4827968;29;20466;-79
2021/03/31 10:31:58;;;;;;;7.90;7.10;;;21.90;54.10;;;;;;4827870;29;20466;-79
2021/03/31 10:34:24;;;;;;;8.70;7.90;;;22.00;54.20;;;;;;4828128;29;20511;-78
2021/03/31 10:36:55;;;;;;;9.63;7.33;;;22.20;54.00;;;;;;4825817;29;20558;-77
2021/03/31 10:39:58;;;;;;;8.77;6.33;;;22.40;52.20;;;;;;4826873;29;20507;-77
2021/03/31 10:51:17;;;;;;;8.20;7.40;;;23.20;51.40;;;;;;4816073;29;20595;-77
2021/03/31 10:53:49;;;;;;;10.30;7.37;;;23.40;51.30;;;;;;4826292;29;20836;-79
2021/03/31 10:56:15;;;;;;;8.70;7.90;;;23.60;48.70;;;;;;4827125;29;20873;-79
2021/03/31 10:58:42;;;;;;;10.13;7.90;;;23.80;48.80;;;;;;4827462;29;20472;-79
2021/03/31 11:01:08;;;;;;;7.90;6.60;;;24.00;48.20;;;;;;4826042;29;20540;-77
2021/03/31 11:03:35;;;;;;;9.57;8.77;;;24.20;48.20;;;;;;4825503;29;20465;-77
2021/03/31 11:06:02;;;;;;;9.13;7.57;;;24.50;47.10;;;;;;4826014;29;20472;-79
2021/03/31 11:08:28;;;;;;;8.60;6.63;;;24.90;46.80;;;;;;4825914;29;20492;-77
2021/03/31 11:10:55;;;;;;;10.37;8.17;;;25.60;47.30;;;;;;4825786;29;20462;-77
2021/03/31 11:13:21;;;;;;;9.70;7.27;;;26.30;46.20;;;;;;4825781;29;20471;-77
2021/03/31 11:15:47;;;;;;;8.97;7.90;;;27.10;42.90;;;;;;4825902;29;20938;-77
2021/03/31 11:18:20;;;;;;;8.03;7.07;;;27.70;43.00;;;;;;4826337;29;20550;-77
2021/03/31 11:21:01;;;;;;;9.60;8.70;;;28.50;42.40;;;;;;4826340;29;20456;-78
2021/03/31 11:26:12;;;;;;;7.70;6.93;;;30.20;38.80;;;;;;4825977;29;20453;-77
2021/03/31 11:28:38;;;;;;;9.40;8.50;;;31.10;38.10;;;;;;4826112;29;20472;-78
2021/03/31 11:31:05;;;;;;;8.80;8.00;;;31.80;33.50;;;;;;4826186;29;20471;-78
2021/03/31 11:33:32;;;;;;;8.40;7.13;;;32.30;31.70;;;;;;4825716;29;20457;-78
2021/03/31 11:35:59;;;;;;;7.90;7.20;;;32.80;32.50;;;;;;4826146;29;20505;-78
2021/03/31 11:38:26;;;;;;;11.53;8.33;;;33.50;32.50;;;;;;4826491;29;20490;-78
2021/03/31 11:40:52;;;;;;;10.63;9.63;;;33.90;29.40;;;;;;4827690;29;20470;-77
2021/03/31 11:43:19;;;;;;;10.43;9.07;;;33.60;27.80;;;;;;4833436;29;20462;-77
2021/03/31 11:45:46;;;;;;;11.37;10.27;;;33.00;28.30;;;;;;4838514;29;20465;-77
2021/03/31 11:48:13;;;;;;;9.70;8.63;;;32.70;28.50;;;;;;4836465;29;20486;-78
2021/03/31 11:50:39;;;;;;;9.53;8.70;;;32.50;29.50;;;;;;4838265;29;20457;-77
2021/03/31 11:53:06;;;;;;;9.90;8.90;;;32.70;29.70;;;;;;4833788;29;20496;-78
2021/03/31 11:55:33;;;;;;;9.03;8.13;;;33.20;29.60;;;;;;4834308;29;20491;-78
2021/03/31 11:57:59;;;;;;;9.77;8.70;;;33.80;29.80;;;;;;4828219;29;20866;-78
2021/03/31 12:00:25;;;;;;;10.17;9.27;;;34.40;28.80;;;;;;4829815;29;20523;-78
2021/03/31 12:02:52;;;;;;;12.73;9.67;;;35.10;28.30;;;;;;4828237;29;21028;-77
2021/03/31 12:05:18;;;;;;;10.57;9.57;;;35.60;27.20;;;;;;4836234;29;20467;-77
2021/03/31 12:07:45;;;;;;;10.90;9.87;;;35.90;26.70;;;;;;4835561;29;20483;-77
2021/03/31 12:10:13;;;;;;;10.40;9.60;;;36.20;26.60;;;;;;4834413;29;20459;-78
2021/03/31 12:12:41;;;;;;;11.03;9.93;;;36.60;26.30;;;;;;4828745;29;20455;-78
2021/03/31 12:15:10;;;;;;;11.13;10.00;;;37.00;26.40;;;;;;4829524;29;20485;-78
2021/03/31 12:17:37;;;;;;;10.00;9.00;;;37.10;24.50;;;;;;4831530;29;20542;-78
2021/03/31 12:20:05;;;;;;;10.97;9.90;;;37.10;25.00;;;;;;4828099;29;20464;-78
2021/03/31 12:22:32;;;;;;;10.93;9.70;;;37.30;24.80;;;;;;4826671;29;20467;-78
2021/03/31 12:24:58;;;;;;;11.50;9.87;;;37.50;24.50;;;;;;4827216;29;20466;-78
2021/03/31 12:27:25;;;;;;;11.33;10.33;;;37.60;23.50;;;;;;4827559;29;20512;-78
2021/03/31 12:29:51;;;;;;;12.43;11.10;;;37.10;23.40;;;;;;4827763;29;20463;-78
2021/03/31 12:32:18;;;;;;;14.13;11.57;;;36.70;23.50;;;;;;4826720;29;20981;-78
2021/03/31 12:34:45;;;;;;;14.37;12.30;;;36.10;23.60;;;;;;4827101;29;20467;-78
2021/03/31 12:37:12;;;;;;;9.87;8.87;;;35.80;24.20;;;;;;4826796;29;20475;-78
2021/03/31 12:39:39;;;;;;;11.80;10.70;;;36.00;25.50;;;;;;4826858;29;20468;-78
2021/03/31 12:42:06;;;;;;;11.70;10.20;;;36.50;25.20;;;;;;4826821;29;20470;-78
2021/03/31 12:44:33;;;;;;;10.10;9.20;;;37.10;24.60;;;;;;4827072;29;20466;-78
2021/03/31 12:47:00;;;;;;;14.13;10.53;;;37.30;23.90;;;;;;4827259;29;20495;-78
2021/03/31 12:49:27;;;;;;;11.67;10.50;;;37.40;24.30;;;;;;4827224;29;20989;-78
2021/03/31 12:51:57;;;;;;;13.33;11.77;;;37.50;23.60;;;;;;4826797;29;20467;-78
2021/03/31 12:54:26;;;;;;;11.40;9.90;;;37.60;24.00;;;;;;4826810;29;20462;-78
2021/03/31 12:56:52;;;;;;;13.17;11.87;;;37.70;23.10;;;;;;4827367;29;20577;-78
2021/03/31 12:59:19;;;;;;;12.60;11.40;;;37.40;22.30;;;;;;4827130;29;20601;-78
2021/03/31 13:01:46;;;;;;;13.60;12.20;;;36.90;23.20;;;;;;4826495;29;20451;-78
2021/03/31 13:04:13;;;;;;;13.90;12.33;;;35.90;23.00;;;;;;4823614;29;20546;-78